TISX/STX METAR and TAF weather

Enter ICAO airport designator
Station Type Date Time Source
TISX METAR 2021/09/24 05:53 UTC NOAA

TISX 240553Z AUTO 36005KT 10SM CLR 25/24 A2994 RMK AO2 SLP136 T02500239 10283 20250 58006


Station Type Date Time Source
TISX Decoded METAR 2021/09/24 05:53 UTC NOAA

Christiansted, Henry E. Rohlsen Airport, Virgin Islands (TISX) 17-42N 064-48W 17M
Sep 24, 2021 - 01:53 AM EDT / 2021.09.24 0553 UTC
Wind: from the N (360 degrees) at 6 MPH (5 KT):0
Visibility: 10 mile(s):0
Sky conditions: clear
Temperature: 77.0 F (25.0 C)
Dew Point: 75.0 F (23.9 C)
Relative Humidity: 93%
Pressure (altimeter): 29.94 in. Hg (1013 hPa)
Pressure tendency: 0.02 inches (0.6 hPa) lower than three hours ago
ob: TISX 240553Z AUTO 36005KT 10SM CLR 25/24 A2994 RMK AO2 SLP136 T02500239 10283 20250 58006
cycle: 6

Station Type Date Time Source
TISX TAF 2021/09/24 06:43 UTC NOAA

TAF TISX 240535Z 2406/2506 00000KT P6SM SKC
FM240800 VRB03KT P6SM FEW025 SCT035
FM241400 14010KT P6SM FEW028 SCT035
FM242200 04003KT P6SM SCT026 SCT045

Example: see airport list